createdAt,value
2024-01-06T00:00:23.384Z,0.84
2024-01-06T00:01:23.445Z,0.86
2024-01-06T00:02:23.354Z,0.85
2024-01-06T00:03:23.433Z,0.86
2024-01-06T00:04:23.518Z,0.85
2024-01-06T00:05:23.343Z,0.84
2024-01-06T00:06:23.408Z,0.85
2024-01-06T00:55:41.016Z,0.87
2024-01-06T00:56:22.855Z,0.92
2024-01-06T00:57:23.199Z,1.17
2024-01-06T00:58:22.834Z,1.62
2024-01-06T00:59:22.837Z,2.30
2024-01-06T01:00:22.828Z,3.28
2024-01-06T01:01:22.825Z,3.20
2024-01-06T01:02:22.819Z,2.69
2024-01-06T01:03:22.881Z,2.31
2024-01-06T01:04:22.854Z,2.03
2024-01-06T01:05:22.792Z,1.83
2024-01-06T01:06:22.834Z,1.67
2024-01-06T01:07:22.740Z,1.54
2024-01-06T01:08:22.724Z,1.46
2024-01-06T01:09:22.743Z,1.36
2024-01-06T01:10:22.754Z,1.31
2024-01-06T01:11:22.733Z,1.26
2024-01-06T01:12:22.702Z,1.20
2024-01-06T01:13:22.773Z,1.16
2024-01-06T01:14:22.673Z,1.12
2024-01-06T01:15:22.690Z,1.11
2024-01-06T01:16:22.652Z,1.06
2024-01-06T01:17:22.747Z,1.04
2024-01-06T01:18:22.706Z,1.05
2024-01-06T01:19:22.695Z,1.01
2024-01-06T01:20:22.617Z,1.01
2024-01-06T01:21:22.642Z,0.97
2024-01-06T01:22:22.598Z,0.98
2024-01-06T01:23:22.595Z,0.95
2024-01-06T01:24:22.595Z,0.94
2024-01-06T01:25:22.579Z,0.94
2024-01-06T01:26:22.560Z,0.93
2024-01-06T01:27:22.602Z,0.92
2024-01-06T01:28:22.554Z,0.90
2024-01-06T01:29:22.554Z,0.90
2024-01-06T01:30:22.752Z,0.90
2024-01-06T01:31:22.693Z,0.90
2024-01-06T01:32:22.632Z,0.89
2024-01-06T01:33:22.657Z,0.88
2024-01-06T01:34:22.596Z,0.88
2024-01-06T01:35:22.491Z,0.87
2024-01-06T01:36:22.468Z,0.87
2024-01-06T01:37:22.562Z,0.87
2024-01-06T01:38:22.456Z,0.87
2024-01-06T01:39:22.457Z,0.86
2024-01-06T01:40:22.437Z,0.86
2024-01-06T01:41:22.436Z,0.86
2024-01-06T01:42:22.449Z,0.86
2024-01-06T01:43:22.439Z,0.84
2024-01-06T01:44:22.394Z,0.86
2024-01-06T01:45:22.504Z,0.85
2024-01-06T01:46:22.378Z,0.84
2024-01-06T01:47:22.369Z,0.84
2024-01-06T01:48:22.523Z,0.85
2024-01-06T01:49:22.468Z,0.84
2024-01-06T01:50:22.347Z,0.86
2024-01-06T01:51:22.367Z,0.84
2024-01-06T01:52:22.342Z,0.83
2024-01-06T01:53:22.318Z,0.83
2024-01-06T01:54:22.316Z,0.83
2024-01-06T01:55:22.299Z,0.84
2024-01-06T01:56:22.290Z,0.83
2024-01-06T01:57:22.340Z,0.83
2024-01-06T01:58:22.260Z,0.83
2024-01-06T01:59:22.284Z,0.83
2024-01-06T02:00:23.514Z,0.82
2024-01-06T02:01:22.384Z,0.82
2024-01-06T02:02:22.255Z,0.82
2024-01-06T02:03:22.366Z,0.83
2024-01-06T02:04:22.217Z,0.83
2024-01-06T02:05:22.243Z,0.83
2024-01-06T02:06:22.216Z,0.81
2024-01-06T02:07:22.186Z,0.82
2024-01-06T02:08:22.190Z,0.81
2024-01-06T02:09:22.181Z,0.83
2024-01-06T02:10:22.160Z,0.83
2024-01-06T02:11:22.165Z,0.82
2024-01-06T02:12:22.181Z,0.82
2024-01-06T02:13:22.129Z,0.81
2024-01-06T02:14:22.126Z,0.82
2024-01-06T02:15:22.147Z,0.82
2024-01-06T02:16:22.096Z,0.82
2024-01-06T02:17:22.093Z,0.80
2024-01-06T02:18:22.291Z,0.81
2024-01-06T02:19:22.262Z,0.82
2024-01-06T02:20:22.055Z,0.81
2024-01-06T02:21:22.065Z,0.81
2024-01-06T02:22:22.086Z,0.82
2024-01-06T02:23:22.030Z,0.80
2024-01-06T02:24:22.179Z,0.81
2024-01-06T02:25:22.013Z,0.81
2024-01-06T02:26:22.017Z,0.80
2024-01-06T02:27:22.061Z,0.80
2024-01-06T02:28:21.983Z,0.81
2024-01-06T02:29:21.970Z,0.81
2024-01-06T02:30:22.037Z,0.82
2024-01-06T02:31:22.080Z,0.82
2024-01-06T02:32:21.947Z,0.80
2024-01-06T02:33:22.127Z,0.80
2024-01-06T02:34:22.024Z,0.81
2024-01-06T02:35:21.921Z,0.81
2024-01-06T02:36:21.919Z,0.81
2024-01-06T02:37:21.901Z,0.81
2024-01-06T02:38:21.884Z,0.80
2024-01-06T02:39:21.894Z,0.80
2024-01-06T02:40:21.874Z,0.80
2024-01-06T02:41:21.859Z,0.81
2024-01-06T02:42:21.980Z,0.80
2024-01-06T02:43:21.840Z,0.81
2024-01-06T02:44:22.004Z,0.81
2024-01-06T02:45:21.878Z,0.80
2024-01-06T02:46:21.821Z,0.81
2024-01-06T02:47:21.848Z,0.80
2024-01-06T02:48:21.957Z,0.81
2024-01-06T02:49:21.930Z,0.81
2024-01-06T02:50:21.787Z,0.80
2024-01-06T02:51:21.807Z,0.82
2024-01-06T02:52:21.758Z,0.80
2024-01-06T02:53:21.752Z,0.79
2024-01-06T02:54:21.765Z,0.80
2024-01-06T02:55:21.767Z,0.80
2024-01-06T02:56:21.718Z,0.81
2024-01-06T02:57:21.749Z,0.80
2024-01-06T02:58:21.720Z,0.81
2024-01-06T02:59:21.696Z,0.81
2024-01-06T03:00:21.721Z,0.79
2024-01-06T03:01:21.756Z,0.80
2024-01-06T03:02:21.707Z,0.78
2024-01-06T03:03:21.818Z,0.80
2024-01-06T03:04:21.740Z,0.79
2024-01-06T03:05:21.694Z,0.79
2024-01-06T03:06:21.684Z,0.80
2024-01-06T03:07:21.631Z,0.79
2024-01-06T03:08:20.618Z,0.81
2024-01-06T03:09:21.667Z,0.80
2024-01-06T03:10:21.582Z,0.80
2024-01-06T03:11:21.577Z,0.80
2024-01-06T03:12:21.624Z,0.80
2024-01-06T03:13:21.665Z,0.81
2024-01-06T03:14:21.557Z,0.79
2024-01-06T03:15:21.637Z,0.81
2024-01-06T03:16:21.536Z,0.80
2024-01-06T03:17:21.521Z,0.80
2024-01-06T03:18:21.724Z,0.79
2024-01-06T03:19:21.699Z,0.80
2024-01-06T03:20:21.497Z,0.80
2024-01-06T03:21:21.581Z,0.80
2024-01-06T03:22:21.530Z,0.80
2024-01-06T03:23:21.480Z,0.80
2024-01-06T03:24:21.502Z,0.80
2024-01-06T03:25:21.447Z,0.80
2024-01-06T03:26:21.513Z,0.80
2024-01-06T03:27:21.458Z,0.81
2024-01-06T03:28:21.432Z,0.81
2024-01-06T03:29:21.428Z,0.79
2024-01-06T03:30:21.476Z,0.80
2024-01-06T03:31:21.488Z,0.79
2024-01-06T03:32:21.391Z,0.80
2024-01-06T03:33:21.499Z,0.80
2024-01-06T03:34:21.466Z,0.80
2024-01-06T03:35:21.389Z,0.80
2024-01-06T03:36:21.386Z,0.80
2024-01-06T03:37:21.348Z,0.80
2024-01-06T03:38:21.348Z,0.81
2024-01-06T03:39:21.360Z,0.80
2024-01-06T03:40:21.318Z,0.80
2024-01-06T03:41:21.308Z,0.80
2024-01-06T03:42:21.348Z,0.80
2024-01-06T03:43:21.283Z,0.80
2024-01-06T03:44:21.299Z,0.79
2024-01-06T03:45:21.300Z,0.79
2024-01-06T03:46:21.259Z,0.79
2024-01-06T03:47:21.272Z,0.79
2024-01-06T03:48:21.420Z,0.80
2024-01-06T03:49:21.313Z,0.79
2024-01-06T03:50:21.231Z,0.80
2024-01-06T03:51:21.435Z,0.80
2024-01-06T03:52:21.331Z,0.80
2024-01-06T03:53:23.274Z,0.81
2024-01-06T03:54:21.223Z,0.81
2024-01-06T03:55:21.171Z,0.81
2024-01-06T03:56:21.162Z,0.81
2024-01-06T03:57:21.210Z,0.81
2024-01-06T03:58:21.154Z,0.80
2024-01-06T03:59:21.137Z,0.80
2024-01-06T04:00:21.149Z,0.80
2024-01-06T04:01:21.156Z,0.81
2024-01-06T04:02:21.109Z,0.81
2024-01-06T04:03:21.173Z,0.81
2024-01-06T04:04:21.252Z,0.80
2024-01-06T04:05:21.119Z,0.80
2024-01-06T04:06:21.101Z,0.80
2024-01-06T04:07:21.107Z,0.79
2024-01-06T04:08:21.049Z,0.80
2024-01-06T04:09:21.081Z,0.80
2024-01-06T04:10:21.029Z,0.80
2024-01-06T04:11:21.029Z,0.80
2024-01-06T04:12:21.069Z,0.80
2024-01-06T04:13:21.012Z,0.81
2024-01-06T04:14:21.003Z,0.80
2024-01-06T04:15:21.009Z,0.80
2024-01-06T04:16:20.992Z,0.80
2024-01-06T04:17:20.968Z,0.79
2024-01-06T04:18:21.041Z,0.81
2024-01-06T04:19:21.010Z,0.80
2024-01-06T04:20:20.947Z,0.80
2024-01-06T04:21:20.989Z,0.81
2024-01-06T04:22:20.930Z,0.79
2024-01-06T04:23:23.763Z,0.79
2024-01-06T04:24:20.920Z,0.80
2024-01-06T04:25:20.913Z,0.80
2024-01-06T04:26:20.883Z,0.80
2024-01-06T04:27:20.901Z,0.80
2024-01-06T04:28:20.912Z,0.80
2024-01-06T04:29:20.876Z,0.81
2024-01-06T04:30:20.943Z,0.80
2024-01-06T04:31:20.946Z,0.79
2024-01-06T04:32:20.859Z,0.80
2024-01-06T04:33:20.912Z,0.81
2024-01-06T04:34:20.850Z,0.81
2024-01-06T04:35:20.798Z,0.80
2024-01-06T04:36:20.804Z,0.80
2024-01-06T04:37:20.837Z,0.80
2024-01-06T04:38:20.774Z,0.80
2024-01-06T04:39:20.821Z,0.80
2024-01-06T04:40:21.527Z,0.80
2024-01-06T04:41:20.750Z,0.80
2024-01-06T04:42:20.821Z,0.80
2024-01-06T04:43:20.725Z,0.79
2024-01-06T04:44:20.709Z,0.80
2024-01-06T04:45:20.812Z,0.80
2024-01-06T04:46:20.695Z,0.80
2024-01-06T04:47:20.707Z,0.79
2024-01-06T04:48:20.797Z,0.78
2024-01-06T04:49:20.790Z,0.80
2024-01-06T04:50:20.657Z,0.80
2024-01-06T04:51:20.686Z,0.79
2024-01-06T04:52:20.631Z,0.80
2024-01-06T04:53:20.635Z,0.79
2024-01-06T04:54:20.650Z,0.80
2024-01-06T04:55:20.661Z,0.80
2024-01-06T04:56:20.607Z,0.78
2024-01-06T04:57:20.605Z,0.79
2024-01-06T04:58:20.604Z,0.80
2024-01-06T04:59:20.570Z,0.79
2024-01-06T05:00:20.589Z,0.80
2024-01-06T05:01:20.813Z,0.80
2024-01-06T05:02:20.552Z,0.78
2024-01-06T05:03:20.701Z,0.79
2024-01-06T05:04:20.619Z,0.79
2024-01-06T05:05:20.605Z,0.79
2024-01-06T05:06:20.567Z,0.79
2024-01-06T05:07:20.535Z,0.79
2024-01-06T05:08:20.543Z,0.79
2024-01-06T05:09:20.580Z,0.79
2024-01-06T05:10:20.464Z,0.78
2024-01-06T05:11:20.498Z,0.79
2024-01-06T05:12:20.520Z,0.78
2024-01-06T05:13:20.446Z,0.78
2024-01-06T05:14:20.438Z,0.79
2024-01-06T05:15:20.546Z,0.80
2024-01-06T05:16:20.413Z,0.79
2024-01-06T05:17:20.419Z,0.79
2024-01-06T05:18:20.512Z,0.79
2024-01-06T05:19:20.764Z,0.79
2024-01-06T05:20:20.380Z,0.80
2024-01-06T05:21:20.434Z,0.78
2024-01-06T05:22:20.367Z,0.78
2024-01-06T05:23:20.357Z,0.79
2024-01-06T05:24:20.474Z,0.78
2024-01-06T05:25:20.343Z,0.78
2024-01-06T05:26:20.342Z,0.79
2024-01-06T05:27:20.399Z,0.79
2024-01-06T05:28:20.313Z,0.78
2024-01-06T05:29:20.291Z,0.79
2024-01-06T05:30:20.396Z,0.79
2024-01-06T05:31:20.360Z,0.78
2024-01-06T05:32:20.307Z,0.79
2024-01-06T05:33:20.448Z,0.78
2024-01-06T05:34:20.342Z,0.79
2024-01-06T05:35:20.260Z,0.78
2024-01-06T05:36:20.235Z,0.80
2024-01-06T05:37:20.223Z,0.79
2024-01-06T05:38:20.240Z,0.79
2024-01-06T05:39:20.271Z,0.77
2024-01-06T05:40:20.198Z,0.78
2024-01-06T05:41:20.199Z,0.78
2024-01-06T05:42:20.219Z,0.78
2024-01-06T05:43:20.194Z,0.79
2024-01-06T05:44:21.134Z,0.78
2024-01-06T05:45:20.226Z,0.78
2024-01-06T05:46:20.141Z,0.78
2024-01-06T05:47:20.141Z,0.79
2024-01-06T05:48:20.228Z,0.78
2024-01-06T05:49:20.182Z,0.79
2024-01-06T05:50:20.097Z,0.78
2024-01-06T05:51:20.175Z,0.78
2024-01-06T05:52:20.096Z,0.78
2024-01-06T05:53:20.082Z,0.79
2024-01-06T05:54:20.082Z,0.78
2024-01-06T05:55:20.054Z,0.78
2024-01-06T05:56:20.049Z,0.77
2024-01-06T05:57:20.047Z,0.77
2024-01-06T05:58:20.041Z,0.77
2024-01-06T05:59:20.060Z,0.77
2024-01-06T06:00:20.120Z,0.78
2024-01-06T06:01:23.136Z,0.79
2024-01-06T06:02:20.551Z,0.79
2024-01-06T06:03:20.148Z,0.79
2024-01-06T06:04:20.039Z,0.78
2024-01-06T06:05:19.967Z,0.78
2024-01-06T06:06:20.052Z,0.78
2024-01-06T06:07:19.959Z,0.77
2024-01-06T06:08:19.937Z,0.78
2024-01-06T06:09:19.937Z,0.78
2024-01-06T06:10:20.083Z,0.78
2024-01-06T06:11:20.005Z,0.78
2024-01-06T06:12:19.910Z,0.78
2024-01-06T06:13:19.895Z,0.79
2024-01-06T06:14:19.886Z,0.78
2024-01-06T06:15:19.998Z,0.78
2024-01-06T06:16:20.545Z,0.77
2024-01-06T06:17:19.875Z,0.78
2024-01-06T06:18:19.956Z,0.77
2024-01-06T06:19:20.015Z,0.76
2024-01-06T06:20:19.838Z,0.76
2024-01-06T06:21:19.840Z,0.77
2024-01-06T06:22:19.815Z,0.78
2024-01-06T06:23:19.801Z,0.76
2024-01-06T06:24:19.816Z,0.77
2024-01-06T06:25:19.783Z,0.78
2024-01-06T06:26:19.781Z,0.77
2024-01-06T06:27:19.781Z,0.77
2024-01-06T06:28:19.752Z,0.77
2024-01-06T06:29:19.827Z,0.76
2024-01-06T06:30:19.797Z,0.77
2024-01-06T06:31:19.849Z,0.78
2024-01-06T06:32:19.716Z,0.77
2024-01-06T06:33:19.880Z,0.77
2024-01-06T06:34:19.803Z,0.77
2024-01-06T06:35:19.687Z,0.77
2024-01-06T06:36:19.700Z,0.78
2024-01-06T06:37:19.700Z,0.76
2024-01-06T06:38:19.661Z,0.77
2024-01-06T06:39:19.734Z,0.77
2024-01-06T06:40:19.650Z,0.76
2024-01-06T06:41:19.626Z,0.77
2024-01-06T06:42:19.649Z,0.77
2024-01-06T06:43:20.304Z,0.78
2024-01-06T06:44:19.600Z,0.76
2024-01-06T06:45:19.616Z,0.76
2024-01-06T06:46:19.604Z,0.76
2024-01-06T06:47:19.612Z,0.76
2024-01-06T06:48:19.642Z,0.77
2024-01-06T06:49:19.615Z,0.77
2024-01-06T06:50:19.548Z,0.77
2024-01-06T06:51:19.643Z,0.78
2024-01-06T06:52:19.526Z,0.77
2024-01-06T06:53:19.516Z,0.77
2024-01-06T06:54:19.560Z,0.77
2024-01-06T06:55:19.511Z,0.76
2024-01-06T06:56:19.490Z,0.77
2024-01-06T06:57:19.537Z,0.77
2024-01-06T06:58:19.473Z,0.77
2024-01-06T06:59:19.473Z,0.76
2024-01-06T07:00:19.504Z,0.76
2024-01-06T07:01:19.540Z,0.77
2024-01-06T07:02:19.440Z,0.76
2024-01-06T07:03:19.614Z,0.75
2024-01-06T07:04:19.415Z,0.76
2024-01-06T07:05:19.457Z,0.78
2024-01-06T07:06:19.425Z,0.77
2024-01-06T07:07:19.452Z,0.76
2024-01-06T07:08:19.372Z,0.76
2024-01-06T07:09:22.767Z,0.76
2024-01-06T07:10:19.358Z,0.76
2024-01-06T07:11:19.350Z,0.76
2024-01-06T07:12:19.378Z,0.76
2024-01-06T07:13:19.322Z,0.77
2024-01-06T07:14:19.333Z,0.77
2024-01-06T07:15:19.355Z,0.77
2024-01-06T07:16:20.021Z,0.76
2024-01-06T07:17:19.291Z,0.77
2024-01-06T07:18:19.356Z,0.76
2024-01-06T07:19:19.406Z,0.77
2024-01-06T07:20:19.268Z,0.77
2024-01-06T07:21:19.286Z,0.76
2024-01-06T07:22:19.248Z,0.76
2024-01-06T07:23:19.241Z,0.76
2024-01-06T07:24:19.253Z,0.76
2024-01-06T07:25:19.217Z,0.76
2024-01-06T07:26:19.207Z,0.77
2024-01-06T07:27:19.222Z,0.77
2024-01-06T07:28:19.194Z,0.76
2024-01-06T07:29:19.185Z,0.76
2024-01-06T07:30:19.310Z,0.76
2024-01-06T07:31:19.336Z,0.75
2024-01-06T07:32:19.158Z,0.76
2024-01-06T07:33:19.205Z,0.77
2024-01-06T07:34:19.305Z,0.76
2024-01-06T07:35:19.171Z,0.76
2024-01-06T07:36:19.153Z,0.76
2024-01-06T07:37:19.113Z,0.77
2024-01-06T07:38:19.100Z,0.76
2024-01-06T07:39:19.165Z,0.76
2024-01-06T07:40:19.073Z,0.76
2024-01-06T07:41:19.075Z,0.76
2024-01-06T07:42:19.094Z,0.75
2024-01-06T07:43:19.054Z,0.76
2024-01-06T07:44:19.042Z,0.76
2024-01-06T07:45:19.035Z,0.78
2024-01-06T07:46:20.583Z,0.76
2024-01-06T07:47:19.019Z,0.78
2024-01-06T07:48:19.223Z,0.77
2024-01-06T07:49:19.239Z,0.77
2024-01-06T07:50:19.009Z,0.77
2024-01-06T07:51:19.052Z,0.76
2024-01-06T07:52:18.976Z,0.77
2024-01-06T07:53:18.964Z,0.76
2024-01-06T07:54:19.019Z,0.76
2024-01-06T07:55:18.935Z,0.77
2024-01-06T07:56:18.923Z,0.76
2024-01-06T07:57:18.957Z,0.76
2024-01-06T07:58:18.909Z,0.76
2024-01-06T07:59:18.923Z,0.76
2024-01-06T08:00:19.024Z,0.76
2024-01-06T08:01:19.128Z,0.77
2024-01-06T08:02:18.892Z,0.77
2024-01-06T08:03:18.972Z,0.75
2024-01-06T08:04:18.931Z,0.75
2024-01-06T08:05:18.853Z,0.76
2024-01-06T08:06:18.965Z,0.76
2024-01-06T08:07:18.922Z,0.76
2024-01-06T08:08:18.818Z,0.76
2024-01-06T08:09:18.862Z,0.77
2024-01-06T08:10:18.793Z,0.76
2024-01-06T08:11:18.787Z,0.75
2024-01-06T08:12:18.887Z,0.76
2024-01-06T08:13:18.784Z,0.75
2024-01-06T08:14:18.787Z,0.77
2024-01-06T08:15:18.767Z,0.75
2024-01-06T08:16:19.347Z,0.75
2024-01-06T08:17:19.718Z,0.76
2024-01-06T08:18:18.925Z,0.75
2024-01-06T08:19:18.879Z,0.77
2024-01-06T08:20:18.704Z,0.76
2024-01-06T08:21:18.724Z,0.76
2024-01-06T08:22:18.686Z,0.77
2024-01-06T08:23:18.707Z,0.76
2024-01-06T08:24:18.986Z,0.75
2024-01-06T08:25:18.658Z,0.76
2024-01-06T08:26:18.659Z,0.75
2024-01-06T08:27:18.676Z,0.76
2024-01-06T08:28:18.632Z,0.77
2024-01-06T08:29:18.628Z,0.75
2024-01-06T08:30:18.765Z,0.77
2024-01-06T08:31:18.652Z,0.76
2024-01-06T08:32:18.607Z,0.76
2024-01-06T08:33:18.734Z,0.77
2024-01-06T08:34:18.749Z,0.76
2024-01-06T08:35:18.568Z,0.76
2024-01-06T08:36:18.590Z,0.76
2024-01-06T08:37:18.553Z,0.76
2024-01-06T08:38:18.543Z,0.77
2024-01-06T08:39:18.639Z,0.76
2024-01-06T08:40:18.523Z,0.76
2024-01-06T08:41:18.538Z,0.76
2024-01-06T08:42:18.561Z,0.76
2024-01-06T08:43:18.497Z,0.75
2024-01-06T08:44:18.492Z,0.76
2024-01-06T08:45:18.566Z,0.77
2024-01-06T08:46:18.475Z,0.77
2024-01-06T08:47:17.456Z,0.77
2024-01-06T08:48:18.615Z,0.77
2024-01-06T08:49:18.539Z,0.77
2024-01-06T08:50:18.427Z,0.77
2024-01-06T08:51:18.461Z,0.76
2024-01-06T08:52:18.415Z,0.76
2024-01-06T08:53:18.396Z,0.76
2024-01-06T08:54:18.441Z,0.77
2024-01-06T08:55:18.418Z,0.77
2024-01-06T08:56:18.375Z,0.77
2024-01-06T08:57:18.413Z,0.78
2024-01-06T08:58:18.369Z,0.76
2024-01-06T08:59:18.343Z,0.77
2024-01-06T09:00:18.473Z,0.76
2024-01-06T09:01:18.384Z,0.76
2024-01-06T09:02:18.321Z,0.75
2024-01-06T09:03:18.440Z,0.77
2024-01-06T09:04:18.321Z,0.76
2024-01-06T09:05:18.322Z,0.76
2024-01-06T09:06:18.316Z,0.76
2024-01-06T09:07:18.294Z,0.76
2024-01-06T09:08:18.282Z,0.76
2024-01-06T09:09:18.322Z,0.76
2024-01-06T09:10:18.371Z,0.76
2024-01-06T09:11:18.275Z,0.76
2024-01-06T09:12:18.234Z,0.76
2024-01-06T09:13:18.215Z,0.77
2024-01-06T09:14:18.197Z,0.76
2024-01-06T09:15:18.269Z,0.76
2024-01-06T09:16:18.184Z,0.77
2024-01-06T09:17:18.177Z,0.76
2024-01-06T09:18:18.335Z,0.76
2024-01-06T09:19:18.376Z,0.77
2024-01-06T09:20:18.153Z,0.76
2024-01-06T09:21:18.146Z,0.76
2024-01-06T09:22:18.124Z,0.77
2024-01-06T09:23:18.118Z,0.76
2024-01-06T09:24:18.137Z,0.75
2024-01-06T09:25:18.112Z,0.76
2024-01-06T09:26:18.111Z,0.77
2024-01-06T09:27:18.140Z,0.76
2024-01-06T09:28:18.107Z,0.77
2024-01-06T09:29:18.059Z,0.77
2024-01-06T09:30:18.157Z,0.76
2024-01-06T09:31:18.107Z,0.76
2024-01-06T09:32:18.067Z,0.76
2024-01-06T09:33:18.191Z,0.77
2024-01-06T09:34:18.092Z,0.76
2024-01-06T09:35:18.008Z,0.78
2024-01-06T09:36:18.057Z,0.77
2024-01-06T09:37:17.985Z,0.77
2024-01-06T09:38:17.981Z,0.76
2024-01-06T09:39:17.978Z,0.77
2024-01-06T09:40:17.957Z,0.76
2024-01-06T09:41:17.981Z,0.77
2024-01-06T09:42:17.961Z,0.78
2024-01-06T09:43:17.956Z,0.76
2024-01-06T09:44:17.923Z,0.76
2024-01-06T09:45:17.949Z,0.77
2024-01-06T09:46:17.916Z,0.77
2024-01-06T09:47:17.898Z,0.76
2024-01-06T09:48:18.068Z,0.77
2024-01-06T09:49:17.939Z,0.76
2024-01-06T09:50:17.866Z,0.76
2024-01-06T09:51:17.898Z,0.77
2024-01-06T09:52:17.843Z,0.77
2024-01-06T09:53:17.848Z,0.77
2024-01-06T09:54:17.850Z,0.76
2024-01-06T09:55:17.817Z,0.77
2024-01-06T09:56:17.835Z,0.77
2024-01-06T09:57:17.808Z,0.77
2024-01-06T09:58:17.838Z,0.77
2024-01-06T09:59:17.830Z,0.77
2024-01-06T10:00:17.801Z,0.77
2024-01-06T10:01:17.902Z,0.76
2024-01-06T10:02:17.758Z,0.78
2024-01-06T10:03:17.811Z,0.77
2024-01-06T10:04:21.499Z,0.78
2024-01-06T10:05:17.896Z,0.78
2024-01-06T10:06:17.853Z,0.78
2024-01-06T10:07:17.712Z,0.78
2024-01-06T10:08:17.700Z,0.78
2024-01-06T10:09:17.717Z,0.78
2024-01-06T10:10:17.683Z,0.77
2024-01-06T10:11:17.719Z,0.78
2024-01-06T10:12:17.684Z,0.77
2024-01-06T10:13:17.647Z,0.78
2024-01-06T10:14:17.639Z,0.78
2024-01-06T10:15:17.703Z,0.77
2024-01-06T10:16:17.624Z,0.77
2024-01-06T10:17:17.625Z,0.78
2024-01-06T10:18:17.854Z,0.77
2024-01-06T10:19:17.664Z,0.77
2024-01-06T10:20:17.579Z,0.78
2024-01-06T10:21:17.604Z,0.78
2024-01-06T10:22:17.575Z,0.77
2024-01-06T10:23:17.566Z,0.77
2024-01-06T10:24:17.612Z,0.78
2024-01-06T10:25:17.548Z,0.77
2024-01-06T10:26:17.533Z,0.77
2024-01-06T10:27:17.556Z,0.77
2024-01-06T10:28:17.516Z,0.78
2024-01-06T10:29:17.511Z,0.77
2024-01-06T10:30:17.564Z,0.78
2024-01-06T10:31:17.564Z,0.78
2024-01-06T10:32:17.477Z,0.78
2024-01-06T10:33:17.547Z,0.79
2024-01-06T10:34:17.639Z,0.77
2024-01-06T10:35:17.445Z,0.78
2024-01-06T10:36:17.733Z,0.77
2024-01-06T10:37:17.429Z,0.78
2024-01-06T10:38:17.422Z,0.77
2024-01-06T10:39:17.558Z,0.77
2024-01-06T10:40:17.410Z,0.78
2024-01-06T10:41:17.400Z,0.78
2024-01-06T10:42:17.395Z,0.77
2024-01-06T10:43:17.370Z,0.78
2024-01-06T10:44:17.405Z,0.77
2024-01-06T10:45:17.442Z,0.78
2024-01-06T10:46:17.485Z,0.77
2024-01-06T10:47:17.377Z,0.78
2024-01-06T10:48:17.449Z,0.77
2024-01-06T10:49:17.373Z,0.78
2024-01-06T10:50:17.308Z,0.77
2024-01-06T10:51:17.448Z,0.77
2024-01-06T10:52:17.391Z,0.78
2024-01-06T10:53:17.285Z,0.78
2024-01-06T10:54:17.371Z,0.79
2024-01-06T10:55:17.263Z,0.77
2024-01-06T10:56:17.246Z,0.77
2024-01-06T10:57:17.351Z,0.78
2024-01-06T10:58:17.241Z,0.77
2024-01-06T10:59:17.232Z,0.77
2024-01-06T11:00:17.261Z,0.77
2024-01-06T11:01:19.538Z,0.77
2024-01-06T11:02:17.199Z,0.77
2024-01-06T11:03:17.261Z,0.77
2024-01-06T11:04:17.413Z,0.78
2024-01-06T11:05:17.196Z,0.78
2024-01-06T11:06:17.169Z,0.77
2024-01-06T11:07:17.166Z,0.78
2024-01-06T11:08:17.147Z,0.78
2024-01-06T11:09:17.206Z,0.77
2024-01-06T11:10:17.159Z,0.77
2024-01-06T11:11:17.110Z,0.78
2024-01-06T11:12:17.150Z,0.78
2024-01-06T11:13:17.089Z,0.77
2024-01-06T11:14:17.086Z,0.77
2024-01-06T11:15:17.127Z,0.77
2024-01-06T11:16:17.068Z,0.77
2024-01-06T11:17:17.054Z,0.78
2024-01-06T11:18:17.175Z,0.77
2024-01-06T11:19:17.194Z,0.77
2024-01-06T11:20:17.143Z,0.78
2024-01-06T11:21:17.068Z,0.77
2024-01-06T11:22:17.006Z,0.78
2024-01-06T11:23:17.069Z,0.77
2024-01-06T11:24:17.146Z,0.77
2024-01-06T11:25:16.984Z,0.77
2024-01-06T11:26:17.089Z,0.78
2024-01-06T11:27:17.056Z,0.78
2024-01-06T11:28:17.106Z,0.78
2024-01-06T11:29:16.996Z,0.77
2024-01-06T11:30:17.072Z,0.78
2024-01-06T11:31:17.097Z,0.77
2024-01-06T11:32:16.914Z,0.78
2024-01-06T11:33:17.104Z,0.78
2024-01-06T11:34:17.114Z,0.77
2024-01-06T11:35:17.101Z,0.77
2024-01-06T11:36:16.918Z,0.77
2024-01-06T11:37:16.867Z,0.77
2024-01-06T11:38:16.871Z,0.76
2024-01-06T11:39:16.906Z,0.77
2024-01-06T11:40:16.845Z,0.76
2024-01-06T11:41:16.828Z,0.77
2024-01-06T11:42:16.834Z,0.77
2024-01-06T11:43:16.827Z,0.78
2024-01-06T11:44:16.807Z,0.77
2024-01-06T11:45:16.928Z,0.76
2024-01-06T11:46:16.843Z,0.77
2024-01-06T11:47:16.768Z,0.76
2024-01-06T11:48:16.982Z,0.77
2024-01-06T11:49:16.979Z,0.77
2024-01-06T11:50:16.770Z,0.78
2024-01-06T11:51:16.795Z,0.77
2024-01-06T11:52:16.729Z,0.77
2024-01-06T11:53:16.718Z,0.77
2024-01-06T11:54:16.746Z,0.77
2024-01-06T11:55:16.705Z,0.77
2024-01-06T11:56:16.690Z,0.77
2024-01-06T11:57:16.720Z,0.77
2024-01-06T11:58:16.673Z,0.77
2024-01-06T11:59:16.705Z,0.78
2024-01-06T12:00:16.731Z,0.77
2024-01-06T12:01:16.737Z,0.77
2024-01-06T12:02:16.641Z,0.76
2024-01-06T12:03:16.645Z,0.77
2024-01-06T12:04:16.655Z,0.78
2024-01-06T12:05:16.628Z,0.77
2024-01-06T12:06:16.676Z,0.78
2024-01-06T12:07:16.666Z,0.77
2024-01-06T12:08:16.582Z,0.77
2024-01-06T12:09:16.733Z,0.77
2024-01-06T12:10:16.559Z,0.76
2024-01-06T12:11:16.561Z,0.77
2024-01-06T12:12:16.556Z,0.78
2024-01-06T12:13:18.683Z,0.77
2024-01-06T12:14:16.533Z,0.78
2024-01-06T12:15:16.544Z,0.78
2024-01-06T12:16:16.515Z,0.79
2024-01-06T12:17:16.500Z,0.78
2024-01-06T12:18:16.614Z,0.77
2024-01-06T12:19:16.603Z,0.77
2024-01-06T12:20:16.515Z,0.77
2024-01-06T12:21:16.511Z,0.78
2024-01-06T12:22:16.456Z,0.77
2024-01-06T12:23:16.479Z,0.78
2024-01-06T12:24:16.475Z,0.77
2024-01-06T12:25:16.446Z,0.77
2024-01-06T12:26:16.419Z,0.78
2024-01-06T12:27:16.455Z,0.77
2024-01-06T12:28:16.401Z,0.78
2024-01-06T12:29:16.391Z,0.76
2024-01-06T12:30:16.428Z,0.77
2024-01-06T12:31:16.472Z,0.77
2024-01-06T12:32:16.379Z,0.77
2024-01-06T12:33:16.581Z,0.77
2024-01-06T12:34:16.447Z,0.76
2024-01-06T12:35:16.346Z,0.78
2024-01-06T12:36:24.350Z,0.77
2024-01-06T12:37:16.338Z,0.78
2024-01-06T12:38:16.336Z,0.78
2024-01-06T12:39:16.354Z,0.78
2024-01-06T12:40:16.281Z,0.79
2024-01-06T12:41:16.278Z,0.79
2024-01-06T12:42:16.300Z,0.79
2024-01-06T12:43:16.260Z,0.78
2024-01-06T12:44:16.259Z,0.78
2024-01-06T12:45:16.316Z,0.78
2024-01-06T12:46:16.234Z,0.77
2024-01-06T12:47:16.262Z,0.79
2024-01-06T12:48:16.351Z,0.78
2024-01-06T12:49:16.274Z,0.78
2024-01-06T12:50:16.248Z,0.79
2024-01-06T12:51:16.231Z,0.77
2024-01-06T12:52:16.267Z,0.77
2024-01-06T12:53:16.175Z,0.78
2024-01-06T12:54:16.222Z,0.77
2024-01-06T12:55:16.239Z,0.77
2024-01-06T12:56:16.138Z,0.77
2024-01-06T12:57:16.188Z,0.78
2024-01-06T12:58:16.124Z,0.77
2024-01-06T12:59:16.130Z,0.77
2024-01-06T13:00:16.176Z,0.77
2024-01-06T13:01:16.233Z,0.77
2024-01-06T13:02:16.077Z,0.78
2024-01-06T13:03:16.312Z,0.77
2024-01-06T13:04:16.295Z,0.77
2024-01-06T13:05:16.147Z,0.78
2024-01-06T13:06:16.072Z,0.77
2024-01-06T13:07:16.030Z,0.77
2024-01-06T13:08:16.035Z,0.78
2024-01-06T13:09:16.028Z,0.77
2024-01-06T13:10:16.013Z,0.76
2024-01-06T13:11:16.034Z,0.77
2024-01-06T13:12:16.031Z,0.77
2024-01-06T13:13:15.992Z,0.77
2024-01-06T13:14:16.368Z,0.76
2024-01-06T13:15:16.056Z,0.76
2024-01-06T13:16:16.027Z,0.76
2024-01-06T13:17:16.066Z,0.77
2024-01-06T13:18:15.991Z,0.76
2024-01-06T13:19:16.078Z,0.76
2024-01-06T13:20:15.913Z,0.77
2024-01-06T13:21:15.926Z,0.76
2024-01-06T13:22:15.939Z,0.76
2024-01-06T13:23:15.882Z,0.76
2024-01-06T13:24:15.907Z,0.77
2024-01-06T13:25:15.889Z,0.77
2024-01-06T13:26:15.850Z,0.76
2024-01-06T13:27:15.882Z,0.76
2024-01-06T13:28:15.835Z,0.76
2024-01-06T13:29:15.824Z,0.77
2024-01-06T13:30:18.922Z,0.75
2024-01-06T13:31:15.864Z,0.75
2024-01-06T13:32:15.956Z,0.75
2024-01-06T13:33:15.911Z,0.76
2024-01-06T13:34:15.938Z,0.76
2024-01-06T13:35:15.764Z,0.77
2024-01-06T13:36:15.793Z,0.77
2024-01-06T13:37:15.770Z,0.77
2024-01-06T13:38:15.749Z,0.76
2024-01-06T13:39:15.754Z,0.76
2024-01-06T13:40:15.722Z,0.76
2024-01-06T13:41:15.709Z,0.77
2024-01-06T13:42:17.683Z,0.76
2024-01-06T13:43:15.719Z,0.76
2024-01-06T13:44:15.688Z,0.76
2024-01-06T13:45:15.747Z,0.76
2024-01-06T13:46:15.671Z,0.77
2024-01-06T13:47:15.655Z,0.76
2024-01-06T13:48:15.813Z,0.76
2024-01-06T13:49:15.866Z,0.76
2024-01-06T13:50:15.637Z,0.75
2024-01-06T13:51:15.659Z,0.76
2024-01-06T13:52:15.605Z,0.77
2024-01-06T13:53:15.596Z,0.77
2024-01-06T13:54:18.597Z,0.77
2024-01-06T13:55:15.760Z,0.77
2024-01-06T13:56:15.567Z,0.77
2024-01-06T13:57:15.584Z,0.77
2024-01-06T13:58:15.553Z,0.76
2024-01-06T13:59:15.574Z,0.77
2024-01-06T14:00:18.530Z,0.75
2024-01-06T14:01:15.633Z,0.75
2024-01-06T14:02:15.511Z,0.76
2024-01-06T14:03:15.594Z,0.76
2024-01-06T14:04:15.576Z,0.77
2024-01-06T14:05:15.560Z,0.76
2024-01-06T14:06:15.595Z,0.77